createdAt,value
2023-05-23T00:02:08.952Z,19.26
2023-05-23T00:04:37.057Z,19.23
2023-05-23T00:07:04.898Z,19.23
2023-05-23T00:09:33.018Z,19.24
2023-05-23T00:12:00.866Z,19.24
2023-05-23T00:14:31.605Z,19.23
2023-05-23T00:16:59.803Z,19.23
2023-05-23T00:19:27.511Z,19.18
2023-05-23T00:21:58.771Z,19.16
2023-05-23T00:24:27.637Z,19.14
2023-05-23T00:26:55.485Z,19.21
2023-05-23T00:29:23.097Z,19.22
2023-05-23T00:31:51.275Z,19.24
2023-05-23T00:34:18.974Z,19.20
2023-05-23T00:36:50.541Z,19.19
2023-05-23T00:39:21.751Z,19.09
2023-05-23T00:41:52.296Z,19.00
2023-05-23T00:44:21.910Z,18.99
2023-05-23T00:46:52.553Z,18.99
2023-05-23T00:49:20.832Z,18.97
2023-05-23T00:51:49.938Z,18.92
2023-05-23T00:54:19.326Z,18.93
2023-05-23T00:56:48.449Z,18.96
2023-05-23T00:59:16.462Z,18.91
2023-05-23T01:01:47.565Z,18.87
2023-05-23T01:04:16.984Z,18.85
2023-05-23T01:06:47.085Z,18.83
2023-05-23T01:09:18.008Z,18.88
2023-05-23T01:12:07.205Z,18.90
2023-05-23T01:14:39.135Z,18.93
2023-05-23T01:17:12.052Z,18.93
2023-05-23T01:21:43.499Z,18.12
2023-05-23T01:24:36.725Z,18.96
2023-05-23T01:27:23.816Z,18.97
2023-05-23T01:29:55.134Z,18.93
2023-05-23T01:32:23.201Z,18.88
2023-05-23T01:34:50.711Z,18.83
2023-05-23T01:37:19.859Z,18.81
2023-05-23T01:39:47.975Z,18.72
2023-05-23T01:42:15.908Z,18.71
2023-05-23T01:44:45.342Z,18.71
2023-05-23T01:47:12.904Z,18.67
2023-05-23T01:49:40.717Z,18.65
2023-05-23T01:52:13.530Z,18.61
2023-05-23T01:54:42.710Z,18.57
2023-05-23T01:57:11.533Z,18.54
2023-05-23T01:59:39.280Z,18.54
2023-05-23T02:02:07.891Z,18.55
2023-05-23T02:04:36.255Z,18.53
2023-05-23T02:07:03.920Z,18.50
2023-05-23T02:09:31.600Z,18.45
2023-05-23T02:11:59.820Z,18.40
2023-05-23T02:14:29.198Z,18.38
2023-05-23T02:16:56.920Z,18.35
2023-05-23T02:19:24.565Z,18.35
2023-05-23T02:21:52.185Z,18.41
2023-05-23T02:24:19.876Z,18.42
2023-05-23T02:26:47.567Z,18.41
2023-05-23T02:29:15.200Z,18.38
2023-05-23T02:31:43.085Z,18.42
2023-05-23T02:34:11.148Z,18.43
2023-05-23T02:36:39.619Z,18.54
2023-05-23T02:39:07.654Z,18.51
2023-05-23T02:41:37.268Z,18.51
2023-05-23T02:44:06.031Z,18.43
2023-05-23T02:46:33.758Z,18.39
2023-05-23T02:49:01.434Z,18.38
2023-05-23T02:51:29.229Z,18.41
2023-05-23T02:53:57.097Z,18.41
2023-05-23T02:56:27.065Z,18.43
2023-05-23T02:58:54.880Z,18.46
2023-05-23T03:01:23.491Z,18.50
2023-05-23T03:03:51.257Z,18.53
2023-05-23T03:06:19.314Z,18.61
2023-05-23T03:08:47.342Z,18.67
2023-05-23T03:11:15.034Z,18.69
2023-05-23T03:13:44.776Z,18.72
2023-05-23T03:16:13.319Z,18.72
2023-05-23T03:18:42.320Z,18.71
2023-05-23T03:21:10.105Z,18.56
2023-05-23T03:23:37.876Z,18.62
2023-05-23T03:26:06.885Z,18.70
2023-05-23T03:28:34.553Z,18.79
2023-05-23T03:31:02.292Z,18.85
2023-05-23T03:33:30.129Z,18.90
2023-05-23T03:35:57.878Z,18.94
2023-05-23T03:38:27.337Z,19.01
2023-05-23T03:40:55.332Z,19.04
2023-05-23T03:43:23.130Z,19.13
2023-05-23T03:45:50.864Z,19.18
2023-05-23T03:48:18.661Z,19.22
2023-05-23T03:50:47.895Z,19.25
2023-05-23T03:53:15.598Z,19.31
2023-05-23T03:55:44.372Z,19.39
2023-05-23T03:58:12.565Z,19.44
2023-05-23T04:00:40.434Z,19.54
2023-05-23T04:03:10.908Z,19.65
2023-05-23T04:05:40.216Z,19.70
2023-05-23T04:08:08.432Z,19.98
2023-05-23T04:10:36.341Z,19.95
2023-05-23T04:13:04.598Z,20.03
2023-05-23T04:15:34.529Z,20.15
2023-05-23T04:18:09.520Z,20.26
2023-05-23T04:20:38.667Z,20.36
2023-05-23T04:23:06.312Z,20.48
2023-05-23T04:25:36.966Z,20.60
2023-05-23T04:28:17.876Z,20.72
2023-05-23T04:30:46.099Z,20.80
2023-05-23T04:33:14.124Z,20.87
2023-05-23T04:35:42.099Z,20.96
2023-05-23T04:38:10.363Z,21.01
2023-05-23T04:40:38.215Z,21.12
2023-05-23T04:43:26.821Z,21.26
2023-05-23T04:45:58.319Z,21.36
2023-05-23T04:48:37.306Z,21.45
2023-05-23T04:51:11.783Z,21.57
2023-05-23T08:26:36.831Z,29.27
2023-05-23T08:29:06.623Z,29.30
2023-05-23T08:31:37.261Z,29.35
2023-05-23T08:34:05.586Z,29.41
2023-05-23T08:36:36.710Z,29.55
2023-05-23T08:39:05.011Z,29.66
2023-05-23T08:41:36.801Z,29.72
2023-05-23T08:44:08.023Z,29.80
2023-05-23T08:46:41.449Z,29.81
2023-05-23T08:49:09.229Z,29.86
2023-05-23T08:51:36.869Z,29.88
2023-05-23T08:54:09.428Z,29.91
2023-05-23T08:56:37.217Z,29.90
2023-05-23T08:59:05.417Z,29.92
2023-05-23T09:01:34.299Z,29.92
2023-05-23T09:04:05.326Z,29.94
2023-05-23T09:07:05.388Z,29.97
2023-05-23T09:09:34.147Z,30.04
2023-05-23T09:12:03.550Z,30.01
2023-05-23T09:14:32.178Z,29.86
2023-05-23T09:17:04.509Z,29.77
2023-05-23T09:19:33.767Z,29.72
2023-05-23T09:22:12.750Z,29.83
2023-05-23T09:24:53.558Z,29.92
2023-05-23T09:27:21.711Z,30.07
2023-05-23T09:29:49.940Z,30.29
2023-05-23T09:32:19.757Z,30.39
2023-05-23T09:35:02.706Z,30.37
2023-05-23T09:37:37.926Z,30.24
2023-05-23T09:40:10.890Z,30.08
2023-05-23T09:42:44.341Z,30.01
2023-05-23T09:45:12.689Z,29.91
2023-05-23T09:47:40.426Z,29.87
2023-05-23T09:50:09.150Z,30.00
2023-05-23T09:52:38.647Z,30.11
2023-05-23T09:55:07.180Z,30.09
2023-05-23T09:57:45.936Z,30.18
2023-05-23T10:00:14.338Z,30.34
2023-05-23T10:03:13.767Z,30.49
2023-05-23T10:05:45.094Z,30.73
2023-05-23T10:08:47.194Z,30.79
2023-05-23T10:11:14.838Z,30.77
2023-05-23T10:13:46.045Z,30.62
2023-05-23T10:16:23.361Z,30.59
2023-05-23T10:18:56.948Z,30.64
2023-05-23T10:21:36.337Z,30.77
2023-05-23T10:24:04.443Z,30.95
2023-05-23T10:26:32.067Z,31.12
2023-05-23T10:28:59.778Z,31.26
2023-05-23T10:31:27.769Z,31.31
2023-05-23T10:34:18.110Z,31.19
2023-05-23T10:37:02.495Z,31.09
2023-05-23T10:39:39.349Z,30.90
2023-05-23T10:42:17.784Z,30.81
2023-05-23T10:44:45.542Z,30.85
2023-05-23T10:47:13.213Z,30.91
2023-05-23T10:49:44.988Z,30.96
2023-05-23T10:52:14.151Z,30.91
2023-05-23T10:54:44.932Z,30.89
2023-05-23T10:57:16.770Z,30.93
2023-05-23T10:59:45.728Z,30.97
2023-05-23T11:02:15.987Z,30.93
2023-05-23T11:04:43.843Z,30.92
2023-05-23T11:07:30.967Z,31.00
2023-05-23T11:10:11.415Z,31.12
2023-05-23T11:12:40.964Z,31.15
2023-05-23T11:15:17.761Z,31.16
2023-05-23T11:17:55.039Z,31.24
2023-05-23T11:20:26.789Z,31.30
2023-05-23T11:23:05.711Z,31.32
2023-05-23T11:25:48.605Z,31.43
2023-05-23T11:28:17.490Z,31.58
2023-05-23T11:30:45.541Z,31.69
2023-05-23T11:33:17.250Z,31.72
2023-05-23T11:35:49.654Z,31.77
2023-05-23T11:38:17.654Z,31.77
2023-05-23T11:40:46.590Z,31.80
2023-05-23T11:43:15.879Z,31.96
2023-05-23T11:45:43.615Z,32.12
2023-05-23T11:48:12.857Z,32.31
2023-05-23T11:50:59.081Z,32.37
2023-05-23T11:53:27.816Z,32.32
2023-05-23T11:55:57.810Z,32.28
2023-05-23T11:58:34.113Z,32.18
2023-05-23T12:01:06.562Z,32.08
2023-05-23T12:03:35.196Z,32.12
2023-05-23T12:06:03.133Z,32.32
2023-05-23T12:08:30.622Z,32.50
2023-05-23T12:10:59.510Z,32.75
2023-05-23T12:13:30.518Z,32.80
2023-05-23T12:16:01.979Z,32.83
2023-05-23T12:18:31.829Z,32.77
2023-05-23T12:21:08.649Z,32.67
2023-05-23T12:23:36.723Z,32.56
2023-05-23T12:26:07.314Z,32.43
2023-05-23T12:28:43.469Z,32.25
2023-05-23T12:31:18.259Z,32.05
2023-05-23T12:33:48.240Z,31.89
2023-05-23T12:36:26.201Z,31.79
2023-05-23T12:38:54.211Z,31.64
2023-05-23T12:41:22.388Z,31.52
2023-05-23T12:43:51.909Z,31.47
2023-05-23T12:46:20.714Z,31.58
2023-05-23T12:48:48.610Z,31.81
2023-05-23T12:51:16.286Z,32.04
2023-05-23T12:53:44.254Z,32.15
2023-05-23T12:56:11.993Z,32.25
2023-05-23T12:58:39.488Z,32.26
2023-05-23T13:01:07.262Z,32.33
2023-05-23T13:03:35.236Z,32.37
2023-05-23T13:06:02.992Z,32.49
2023-05-23T13:08:30.617Z,32.52
2023-05-23T13:10:58.329Z,32.44
2023-05-23T13:13:26.836Z,32.27
2023-05-23T13:15:54.439Z,32.35
2023-05-23T13:18:21.938Z,32.43
2023-05-23T13:20:49.615Z,32.46
2023-05-23T13:23:17.125Z,32.47
2023-05-23T13:25:44.946Z,32.57
2023-05-23T13:28:12.630Z,32.63
2023-05-23T13:30:40.469Z,32.74
2023-05-23T13:33:08.398Z,32.78
2023-05-23T13:38:35.292Z,32.18
2023-05-23T13:41:02.449Z,33.01
2023-05-23T13:43:29.294Z,33.17
2023-05-23T13:45:56.071Z,33.28
2023-05-23T13:48:23.110Z,33.38
2023-05-23T13:50:50.099Z,33.43
2023-05-23T13:53:17.207Z,33.44
2023-05-23T13:55:47.149Z,33.38
2023-05-23T13:58:14.098Z,33.13
2023-05-23T14:00:41.504Z,33.00
2023-05-23T14:03:09.298Z,32.81
2023-05-23T14:05:36.668Z,32.65
2023-05-23T14:08:04.090Z,32.62
2023-05-23T14:10:32.833Z,32.69
2023-05-23T14:13:01.012Z,32.80
2023-05-23T14:15:28.139Z,32.88
2023-05-23T14:17:55.816Z,32.98
2023-05-23T14:20:22.807Z,33.07
2023-05-23T14:22:50.729Z,33.15
2023-05-23T14:25:17.926Z,33.22
2023-05-23T14:27:44.887Z,33.28
2023-05-23T14:30:12.480Z,33.29
2023-05-23T14:32:39.859Z,33.34
2023-05-23T14:35:08.797Z,33.29
2023-05-23T14:37:36.535Z,33.22
2023-05-23T14:40:04.386Z,33.10
2023-05-23T14:42:32.124Z,32.94
2023-05-23T14:44:59.305Z,32.72
2023-05-23T14:47:26.423Z,32.69
2023-05-23T14:49:53.279Z,32.64
2023-05-23T14:52:20.538Z,32.50
2023-05-23T14:54:47.332Z,32.31
2023-05-23T14:57:14.261Z,32.15
2023-05-23T14:59:41.350Z,32.08
2023-05-23T15:02:08.377Z,32.07
2023-05-23T15:04:36.709Z,32.05
2023-05-23T15:07:03.898Z,32.09
2023-05-23T15:09:31.780Z,32.18
2023-05-23T15:11:59.037Z,32.44
2023-05-23T15:14:29.264Z,32.70
2023-05-23T15:16:56.575Z,32.95
2023-05-23T15:19:23.775Z,33.28
2023-05-23T15:21:51.745Z,33.62
2023-05-23T15:24:18.860Z,33.88
2023-05-23T15:26:46.526Z,34.05
2023-05-23T15:29:14.856Z,34.07
2023-05-23T15:31:42.137Z,34.01
2023-05-23T15:34:09.006Z,33.97
2023-05-23T15:36:36.313Z,34.01
2023-05-23T15:39:04.798Z,34.03
2023-05-23T15:41:32.186Z,34.03
2023-05-23T15:43:59.179Z,33.91
2023-05-23T15:46:26.404Z,33.70
2023-05-23T15:48:53.349Z,33.46
2023-05-23T15:51:20.530Z,33.20
2023-05-23T15:54:00.759Z,32.99
2023-05-23T15:56:28.328Z,32.73
2023-05-23T15:58:55.514Z,32.49
2023-05-23T16:01:22.510Z,32.28
2023-05-23T16:03:49.557Z,32.10
2023-05-23T16:06:16.500Z,31.96
2023-05-23T16:08:43.468Z,31.81
2023-05-23T16:11:10.626Z,31.66
2023-05-23T16:13:37.425Z,31.53
2023-05-23T16:16:04.767Z,31.42
2023-05-23T16:18:31.876Z,31.30
2023-05-23T16:20:58.970Z,31.11
2023-05-23T16:23:26.146Z,30.90
2023-05-23T16:25:53.202Z,30.83
2023-05-23T16:28:20.447Z,30.69
2023-05-23T16:30:47.333Z,30.53
2023-05-23T16:33:14.625Z,30.40
2023-05-23T16:35:41.900Z,30.27
2023-05-23T16:38:09.072Z,30.19
2023-05-23T16:40:36.174Z,30.12
2023-05-23T16:43:03.609Z,30.05
2023-05-23T16:45:32.028Z,29.99
2023-05-23T16:48:00.761Z,29.92
2023-05-23T16:50:27.830Z,29.84
2023-05-23T16:52:54.985Z,29.69
2023-05-23T16:55:21.763Z,29.54
2023-05-23T16:57:48.974Z,29.45
2023-05-23T17:00:16.552Z,29.30
2023-05-23T17:02:43.969Z,29.14
2023-05-23T17:05:11.180Z,29.02
2023-05-23T17:07:37.944Z,28.95
2023-05-23T17:10:05.495Z,28.86
2023-05-23T17:12:32.452Z,28.80
2023-05-23T17:15:00.835Z,28.73
2023-05-23T17:17:27.886Z,28.58
2023-05-23T17:19:54.788Z,28.47
2023-05-23T17:22:21.867Z,28.40
2023-05-23T17:24:48.740Z,28.35
2023-05-23T17:27:16.130Z,28.28
2023-05-23T17:29:43.357Z,28.22
2023-05-23T17:32:10.180Z,28.12
2023-05-23T17:34:37.748Z,28.06
2023-05-23T17:37:04.617Z,27.95
2023-05-23T17:39:32.966Z,27.81
2023-05-23T17:42:00.514Z,27.76
2023-05-23T17:44:27.301Z,27.73
2023-05-23T17:46:54.344Z,27.68
2023-05-23T17:49:21.174Z,27.62
2023-05-23T17:51:48.125Z,27.61
2023-05-23T17:54:15.295Z,27.62
2023-05-23T17:56:42.780Z,27.60
2023-05-23T17:59:09.829Z,27.61
2023-05-23T18:01:36.836Z,27.61
2023-05-23T18:04:03.704Z,27.61
2023-05-23T18:06:31.460Z,27.59
2023-05-23T18:08:58.512Z,27.55
2023-05-23T18:11:27.464Z,27.50
2023-05-23T18:13:54.328Z,27.50
2023-05-23T18:16:21.769Z,27.51
2023-05-23T18:18:49.641Z,27.47
2023-05-23T18:21:18.180Z,27.46
2023-05-23T18:23:45.283Z,27.45
2023-05-23T18:26:12.145Z,27.44
2023-05-23T18:28:39.074Z,27.43
2023-05-23T18:31:06.110Z,27.43
2023-05-23T18:33:33.237Z,27.37
2023-05-23T18:36:00.960Z,27.28
2023-05-23T18:38:27.835Z,27.23
2023-05-23T18:40:54.718Z,27.14
2023-05-23T18:43:22.485Z,27.06
2023-05-23T18:45:49.379Z,27.00
2023-05-23T18:48:16.973Z,26.96
2023-05-23T18:50:44.249Z,26.91
2023-05-23T18:53:11.584Z,26.87
2023-05-23T18:55:38.400Z,26.81
2023-05-23T18:58:05.307Z,26.76
2023-05-23T19:00:32.527Z,26.68
2023-05-23T19:02:59.383Z,26.61
2023-05-23T19:05:26.621Z,26.52
2023-05-23T19:07:53.829Z,26.45
2023-05-23T19:10:21.492Z,26.39
2023-05-23T19:12:48.650Z,26.31
2023-05-23T19:15:15.774Z,26.24
2023-05-23T19:17:43.151Z,26.14
2023-05-23T19:20:11.459Z,26.04
2023-05-23T19:22:50.899Z,25.93
2023-05-23T19:25:20.035Z,25.87
2023-05-23T19:27:47.157Z,25.79
2023-05-23T19:30:14.723Z,25.73
2023-05-23T19:32:41.744Z,25.66
2023-05-23T19:35:09.184Z,25.62
2023-05-23T19:37:36.422Z,25.57
2023-05-23T19:40:03.936Z,25.49
2023-05-23T19:42:31.818Z,25.38
2023-05-23T19:44:58.697Z,25.28
2023-05-23T19:47:25.799Z,25.19
2023-05-23T19:49:52.804Z,25.16
2023-05-23T19:52:20.132Z,25.15
2023-05-23T19:54:47.000Z,25.12
2023-05-23T19:57:13.741Z,25.04
2023-05-23T19:59:41.743Z,24.96
2023-05-23T20:02:09.380Z,24.83
2023-05-23T20:04:36.712Z,24.76
2023-05-23T20:07:04.091Z,24.74
2023-05-23T20:09:31.044Z,24.73
2023-05-23T20:11:57.914Z,24.67
2023-05-23T20:14:25.169Z,24.64
2023-05-23T20:16:53.394Z,24.61
2023-05-23T20:19:20.375Z,24.58
2023-05-23T20:21:47.726Z,24.54
2023-05-23T20:24:14.629Z,24.49
2023-05-23T20:26:42.057Z,24.45
2023-05-23T20:29:08.871Z,24.42
2023-05-23T20:31:37.064Z,24.40
2023-05-23T20:34:03.869Z,24.37
2023-05-23T20:36:30.898Z,24.34
2023-05-23T20:38:58.355Z,24.27
2023-05-23T20:41:25.126Z,24.21
2023-05-23T20:43:52.072Z,24.15
2023-05-23T20:46:18.948Z,24.11
2023-05-23T20:48:46.449Z,24.01
2023-05-23T20:51:13.779Z,23.96
2023-05-23T20:53:41.112Z,23.92
2023-05-23T20:56:09.934Z,23.86
2023-05-23T20:58:37.494Z,23.81
2023-05-23T21:01:04.467Z,23.75
2023-05-23T21:03:32.905Z,23.74
2023-05-23T21:05:59.881Z,23.66
2023-05-23T21:08:26.868Z,23.55
2023-05-23T21:10:56.033Z,23.36
2023-05-23T21:13:22.932Z,23.31
2023-05-23T21:15:49.933Z,23.36
2023-05-23T21:18:16.730Z,23.24
2023-05-23T21:20:43.834Z,23.20
2023-05-23T21:23:10.927Z,23.13
2023-05-23T21:25:37.666Z,23.06
2023-05-23T21:28:04.805Z,23.03
2023-05-23T21:30:31.803Z,22.98
2023-05-23T21:32:59.224Z,23.24
2023-05-23T21:35:26.280Z,23.26
2023-05-23T21:37:53.467Z,23.21
2023-05-23T21:40:20.851Z,23.11
2023-05-23T21:42:47.691Z,22.68
2023-05-23T21:45:14.664Z,22.65
2023-05-23T21:47:44.148Z,22.54
2023-05-23T21:50:11.045Z,22.58
2023-05-23T21:52:37.970Z,22.59
2023-05-23T21:55:05.501Z,22.54
2023-05-23T21:57:32.652Z,22.49
2023-05-23T21:59:59.523Z,22.47
2023-05-23T22:02:26.262Z,22.43
2023-05-23T22:04:53.316Z,22.40
2023-05-23T22:07:24.572Z,22.36
2023-05-23T22:09:52.977Z,22.34
2023-05-23T22:12:20.185Z,22.32
2023-05-23T22:14:47.255Z,22.31
2023-05-23T22:17:14.345Z,22.30
2023-05-23T22:19:41.270Z,22.27
2023-05-23T22:22:11.472Z,22.27
2023-05-23T22:24:38.695Z,22.25
2023-05-23T22:27:05.819Z,22.25
2023-05-23T22:29:33.440Z,22.29
2023-05-23T22:32:00.429Z,22.24
2023-05-23T22:34:27.418Z,22.20
2023-05-23T22:36:54.208Z,22.19
2023-05-23T22:39:21.001Z,22.17
2023-05-23T22:41:48.129Z,22.16
2023-05-23T22:44:14.974Z,22.17
2023-05-23T22:46:42.307Z,22.18
2023-05-23T22:49:09.695Z,22.18
2023-05-23T22:51:36.719Z,22.19
2023-05-23T22:54:03.533Z,22.16
2023-05-23T22:56:30.327Z,22.13
2023-05-23T22:58:57.120Z,22.12
2023-05-23T23:01:23.942Z,22.13
2023-05-23T23:03:50.790Z,22.13
2023-05-23T23:06:20.446Z,22.14
2023-05-23T23:08:47.202Z,22.06
2023-05-23T23:11:14.062Z,21.98
2023-05-23T23:13:41.216Z,21.95
2023-05-23T23:16:08.192Z,21.90
2023-05-23T23:18:35.181Z,21.85
2023-05-23T23:21:01.960Z,21.83
2023-05-23T23:23:30.001Z,21.80
2023-05-23T23:25:58.869Z,21.77
2023-05-23T23:28:25.968Z,21.75
2023-05-23T23:30:52.838Z,21.75
2023-05-23T23:33:19.864Z,21.75
2023-05-23T23:35:48.071Z,21.68
2023-05-23T23:38:15.852Z,21.65
2023-05-23T23:40:44.795Z,21.62
2023-05-23T23:43:13.154Z,21.57
2023-05-23T23:45:40.444Z,21.52
2023-05-23T23:48:07.434Z,21.48
2023-05-23T23:50:34.612Z,21.45
2023-05-23T23:53:01.373Z,21.42
2023-05-23T23:55:28.481Z,21.40
2023-05-23T23:57:55.188Z,21.41
